createdAt,value
2018-07-23T00:00:39.456Z,54.00
2018-07-23T00:05:30.339Z,54.00
2018-07-23T00:10:21.300Z,54.10
2018-07-23T00:15:12.214Z,54.00
2018-07-23T00:20:03.100Z,54.10
2018-07-23T00:24:54.052Z,54.10
2018-07-23T00:29:44.949Z,54.10
2018-07-23T00:34:35.897Z,54.10
2018-07-23T00:39:26.826Z,54.10
2018-07-23T00:44:17.714Z,54.10
2018-07-23T00:49:08.599Z,54.10
2018-07-23T00:53:59.556Z,54.20
2018-07-23T00:58:50.456Z,54.20
2018-07-23T01:03:41.386Z,54.30
2018-07-23T01:08:32.345Z,54.40
2018-07-23T01:13:23.986Z,54.50
2018-07-23T01:18:15.688Z,55.10
2018-07-23T01:23:06.625Z,54.40
2018-07-23T01:27:57.557Z,54.50
2018-07-23T01:32:48.449Z,54.60
2018-07-23T01:37:39.368Z,54.50
2018-07-23T01:42:30.260Z,54.80
2018-07-23T01:47:21.171Z,54.80
2018-07-23T01:52:12.064Z,54.80
2018-07-23T01:57:03.693Z,55.20
2018-07-23T02:01:55.365Z,55.20
2018-07-23T02:06:46.254Z,55.10
2018-07-23T02:11:37.901Z,55.10
2018-07-23T02:16:28.787Z,55.00
2018-07-23T02:21:19.855Z,55.00
2018-07-23T02:26:10.764Z,55.00
2018-07-23T02:31:01.670Z,54.80
2018-07-23T02:35:53.356Z,54.90
2018-07-23T02:40:44.260Z,54.80
2018-07-23T02:45:35.186Z,55.00
2018-07-23T02:50:26.096Z,55.00
2018-07-23T02:55:17.052Z,55.00
2018-07-23T03:00:07.957Z,55.10
2018-07-23T03:04:58.892Z,55.00
2018-07-23T03:09:49.898Z,55.20
2018-07-23T03:14:40.800Z,55.10
2018-07-23T03:19:31.693Z,55.10
2018-07-23T03:24:22.602Z,55.40
2018-07-23T03:29:13.491Z,55.40
2018-07-23T03:34:04.476Z,55.40
2018-07-23T03:38:55.356Z,55.40
2018-07-23T03:43:46.992Z,55.50
2018-07-23T03:48:37.956Z,55.40
2018-07-23T03:53:28.839Z,55.60
2018-07-23T03:58:19.784Z,55.80
2018-07-23T04:03:10.710Z,55.80
2018-07-23T04:08:01.595Z,55.90
2018-07-23T04:12:52.539Z,55.90
2018-07-23T04:17:43.467Z,55.90
2018-07-23T04:22:34.362Z,55.80
2018-07-23T04:27:25.313Z,55.70
2018-07-23T04:32:16.236Z,55.80
2018-07-23T04:37:07.243Z,55.60
2018-07-23T04:41:58.136Z,55.60
2018-07-23T04:46:49.097Z,55.50
2018-07-23T04:51:40.005Z,55.40
2018-07-23T04:56:30.975Z,55.50
2018-07-23T05:01:21.848Z,55.50
2018-07-23T05:06:12.760Z,55.50
2018-07-23T05:11:03.681Z,55.30
2018-07-23T05:15:54.638Z,55.50
2018-07-23T05:20:46.324Z,55.60
2018-07-23T05:25:37.231Z,55.60
2018-07-23T05:30:28.165Z,55.90
2018-07-23T05:35:19.052Z,56.00
2018-07-23T05:40:09.960Z,56.10
2018-07-23T05:45:00.989Z,55.90
2018-07-23T05:49:51.875Z,55.70
2018-07-23T05:54:43.577Z,56.00
2018-07-23T05:59:34.486Z,56.00
2018-07-23T06:04:25.403Z,56.50
2018-07-23T06:09:16.279Z,56.50
2018-07-23T06:14:07.921Z,56.60
2018-07-23T06:18:58.815Z,56.50
2018-07-23T06:23:49.729Z,57.40
2018-07-23T06:28:40.732Z,57.20
2018-07-23T06:33:31.622Z,57.10
2018-07-23T06:38:22.516Z,56.90
2018-07-23T06:43:13.453Z,57.20
2018-07-23T06:48:04.346Z,57.50
2018-07-23T06:52:56.091Z,57.40
2018-07-23T06:57:46.992Z,57.40
2018-07-23T07:02:38.642Z,57.80
2018-07-23T07:07:29.613Z,57.60
2018-07-23T07:12:20.514Z,57.90
2018-07-23T07:17:11.450Z,58.10
2018-07-23T07:22:02.343Z,57.90
2018-07-23T07:26:53.242Z,57.70
2018-07-23T07:31:44.143Z,57.60
2018-07-23T07:36:35.771Z,57.60
2018-07-23T07:41:27.403Z,57.30
2018-07-23T07:46:18.331Z,57.20
2018-07-23T07:51:09.960Z,57.00
2018-07-23T07:56:01.653Z,56.90
2018-07-23T08:00:52.548Z,56.80
2018-07-23T08:05:43.462Z,56.80
2018-07-23T08:10:34.364Z,56.60
2018-07-23T08:15:26.016Z,56.00
2018-07-23T08:20:16.913Z,55.90
2018-07-23T08:25:08.582Z,55.40
2018-07-23T08:30:00.232Z,55.20
2018-07-23T08:34:51.176Z,55.20
2018-07-23T08:39:42.118Z,55.10
2018-07-23T08:44:33.876Z,54.50
2018-07-23T08:54:42.588Z,54.20
2018-07-23T08:59:33.508Z,54.40
2018-07-23T09:04:24.535Z,54.00
2018-07-23T09:09:15.499Z,54.10
2018-07-23T09:14:06.434Z,54.10
2018-07-23T09:18:57.335Z,54.10
2018-07-23T09:23:49.052Z,53.90
2018-07-23T09:28:39.926Z,53.90
2018-07-23T09:33:30.824Z,53.70
2018-07-23T09:38:21.707Z,53.70
2018-07-23T09:43:13.338Z,53.50
2018-07-23T09:48:04.223Z,53.40
2018-07-23T09:52:55.143Z,53.30
2018-07-23T09:57:46.042Z,53.40
2018-07-23T10:50:52.818Z,53.30
2018-07-23T10:55:43.734Z,52.00
2018-07-23T11:00:34.641Z,52.10
2018-07-23T11:05:25.561Z,52.10
2018-07-23T11:10:16.475Z,51.90
2018-07-23T11:15:08.222Z,51.70
2018-07-23T11:19:59.167Z,51.10
2018-07-23T11:24:50.061Z,50.80
2018-07-23T11:29:41.029Z,50.60
2018-07-23T11:34:31.966Z,50.60
2018-07-23T11:39:23.816Z,49.40
2018-07-23T11:44:14.709Z,49.40
2018-07-23T11:49:05.615Z,49.20
2018-07-23T11:53:56.549Z,49.30
2018-07-23T11:58:47.452Z,49.00
2018-07-23T12:03:38.389Z,49.00
2018-07-23T12:08:29.315Z,48.70
2018-07-23T12:13:20.312Z,48.30
2018-07-23T12:18:11.218Z,48.60
2018-07-23T12:23:02.142Z,47.70
2018-07-23T12:27:53.072Z,47.20
2018-07-23T12:32:43.985Z,46.50
2018-07-23T12:37:34.920Z,46.40
2018-07-23T12:42:25.934Z,46.70
2018-07-23T12:47:16.870Z,46.60
2018-07-23T12:52:09.292Z,45.60
2018-07-23T12:57:00.234Z,45.50
2018-07-23T13:01:51.163Z,45.30
2018-07-23T13:06:42.065Z,45.10
2018-07-23T13:11:32.978Z,44.60
2018-07-23T13:16:23.869Z,44.40
2018-07-23T13:21:14.782Z,44.00
2018-07-23T13:26:05.696Z,44.40
2018-07-23T13:30:56.612Z,44.40
2018-07-23T13:35:47.530Z,44.20
2018-07-23T13:40:38.506Z,44.20
2018-07-23T13:45:29.641Z,44.20
2018-07-23T13:50:21.365Z,44.00
2018-07-23T13:55:12.304Z,43.90
2018-07-23T14:00:03.957Z,44.20
2018-07-23T14:04:54.866Z,44.10
2018-07-23T14:09:45.844Z,44.00
2018-07-23T14:14:36.749Z,44.00
2018-07-23T14:19:27.688Z,43.60
2018-07-23T14:24:18.728Z,43.50
2018-07-23T14:29:09.640Z,43.60
2018-07-23T14:34:00.683Z,43.70
2018-07-23T14:38:52.324Z,44.10
2018-07-23T14:43:44.072Z,44.30
2018-07-23T14:48:34.974Z,44.30
2018-07-23T14:53:26.689Z,44.50
2018-07-23T14:58:19.067Z,44.30
2018-07-23T15:03:10.757Z,44.20
2018-07-23T15:08:02.445Z,44.30
2018-07-23T15:12:53.416Z,44.20
2018-07-23T15:17:44.333Z,44.30
2018-07-23T15:22:35.244Z,44.00
2018-07-23T15:27:26.201Z,43.40
2018-07-23T15:32:17.213Z,43.40
2018-07-23T15:37:08.116Z,43.40
2018-07-23T15:41:59.022Z,42.60
2018-07-23T15:46:49.944Z,43.10
2018-07-23T15:51:40.867Z,43.50
2018-07-23T15:56:31.762Z,43.40
2018-07-23T16:01:22.686Z,43.40
2018-07-23T16:06:13.632Z,43.60
2018-07-23T16:11:04.523Z,43.60
2018-07-23T16:15:55.423Z,43.20
2018-07-23T16:20:46.315Z,43.10
2018-07-23T16:25:37.959Z,43.80
2018-07-23T16:30:29.601Z,43.80
2018-07-23T16:35:20.645Z,43.80
2018-07-23T16:40:11.552Z,43.70
2018-07-23T16:45:02.450Z,43.70
2018-07-23T16:49:53.342Z,44.00
2018-07-23T16:54:44.995Z,44.20
2018-07-23T16:59:36.626Z,44.30
2018-07-23T17:04:28.334Z,44.70
2018-07-23T17:09:19.262Z,44.70
2018-07-23T17:14:10.263Z,44.70
2018-07-23T17:19:01.179Z,44.80
2018-07-23T17:23:52.104Z,45.00
2018-07-23T17:28:43.029Z,45.40
2018-07-23T17:33:33.919Z,45.50
2018-07-23T17:38:24.823Z,45.60
2018-07-23T17:43:15.795Z,45.70
2018-07-23T17:48:07.439Z,45.80
2018-07-23T17:52:58.435Z,45.90
2018-07-23T17:57:49.389Z,46.80
2018-07-23T18:02:41.040Z,46.00
2018-07-23T18:07:32.013Z,46.00
2018-07-23T18:12:22.903Z,46.20
2018-07-23T18:17:13.839Z,46.20
2018-07-23T18:22:04.734Z,46.40
2018-07-23T18:26:55.667Z,46.50
2018-07-23T18:31:46.552Z,46.70
2018-07-23T18:36:37.513Z,46.90
2018-07-23T18:41:28.401Z,47.20
2018-07-23T18:46:19.287Z,47.30
2018-07-23T18:51:10.245Z,47.20
2018-07-23T18:56:01.131Z,47.30
2018-07-23T19:00:52.811Z,47.70
2018-07-23T19:05:43.749Z,47.70
2018-07-23T19:10:34.690Z,47.80
2018-07-23T19:15:27.076Z,48.20
2018-07-23T19:20:18.872Z,48.10
2018-07-23T19:25:09.955Z,48.30
2018-07-23T19:30:03.144Z,48.30
2018-07-23T19:34:54.032Z,48.40
2018-07-23T19:39:44.987Z,48.60
2018-07-23T19:44:35.907Z,48.50
2018-07-23T19:49:26.813Z,48.70
2018-07-23T19:54:17.720Z,48.70
2018-07-23T19:59:08.621Z,48.80
2018-07-23T20:03:59.507Z,48.90
2018-07-23T20:08:50.397Z,49.10
2018-07-23T20:13:41.357Z,49.10
2018-07-23T20:18:33.008Z,49.10
2018-07-23T20:23:23.913Z,49.10
2018-07-23T20:28:15.623Z,49.40
2018-07-23T20:33:06.610Z,49.30
2018-07-23T20:37:58.007Z,49.50
2018-07-23T20:42:48.891Z,49.70
2018-07-23T20:47:39.788Z,49.90
2018-07-23T20:52:30.722Z,49.90
2018-07-23T20:57:21.623Z,50.10
2018-07-23T21:02:12.509Z,50.10
2018-07-23T21:07:03.536Z,50.20
2018-07-23T21:11:54.497Z,50.30
2018-07-23T21:16:45.388Z,50.40
2018-07-23T21:21:36.291Z,50.40
2018-07-23T21:26:28.212Z,50.50
2018-07-23T21:31:21.330Z,51.30
2018-07-23T21:36:13.755Z,50.60
2018-07-23T21:41:05.446Z,50.80
2018-07-23T21:45:56.367Z,50.80
2018-07-23T21:50:47.371Z,50.80
2018-07-23T21:55:38.317Z,51.00
2018-07-23T22:00:29.210Z,51.00
2018-07-23T22:05:20.115Z,51.10
2018-07-23T22:10:11.007Z,51.20
2018-07-23T22:15:01.896Z,51.20
2018-07-23T22:19:52.899Z,51.20
2018-07-23T22:24:43.791Z,51.30
2018-07-23T22:29:34.675Z,51.30
2018-07-23T22:34:26.292Z,51.50
2018-07-23T22:39:17.954Z,51.90
2018-07-23T22:44:08.856Z,51.50
2018-07-23T22:49:00.539Z,51.80
2018-07-23T22:53:51.439Z,51.60
2018-07-23T22:58:42.356Z,51.70
2018-07-23T23:03:33.306Z,51.70
2018-07-23T23:08:24.229Z,51.80
2018-07-23T23:13:15.130Z,51.80
2018-07-23T23:18:06.055Z,52.00
2018-07-23T23:22:56.956Z,52.00
2018-07-23T23:27:47.903Z,52.20
2018-07-23T23:32:38.784Z,52.20
2018-07-23T23:37:29.677Z,52.20
2018-07-23T23:42:21.368Z,52.20
2018-07-23T23:47:12.271Z,52.20
2018-07-23T23:52:03.151Z,52.30
2018-07-23T23:56:54.796Z,52.40
